Rechercher aéroport 
image banner adimage banner adimage banner ad
image banner ad

5Q2 - Usfs Chester

Situé à Chester, United States

ICAO - 5Q2, IATA -

Données fournies par Airmate  

Information générale

Coordonnées: N40°17'19" W121°14'36"
Élévation : 4526 feet MSL.
Variation magnétique : 17° East
Voir autres Aéroports à California

Données opérationnelles

Special qualification required
Heure actuelle UTC:
Heure actuelle locale:
Météo à : KSVE - Susanville Muni ( 58 km )
METAR: KSVE 292135Z AUTO 16004KT 10SM CLR 35/01 A3007 RMK AO2
Voir NOTAMs / SUP AIP / TFR affectant cet aéroport [VIEW]
Fréquences de communication: [VIEW]

Pistes:

Coordonnées de l'aéroport

Adresse: Chester United States

Vue satellite de 5Q2